createdAt,value
2016-04-12T00:00:36.190Z,0
2016-04-12T00:01:36.256Z,0
2016-04-12T00:02:36.306Z,0
2016-04-12T00:03:36.355Z,0
2016-04-12T00:04:36.420Z,0
2016-04-12T00:05:36.438Z,0
2016-04-12T00:06:36.503Z,0
2016-04-12T00:07:36.569Z,0
2016-04-12T00:08:36.764Z,0
2016-04-12T00:09:36.648Z,0
2016-04-12T00:10:36.714Z,0
2016-04-12T00:11:36.778Z,0
2016-04-12T00:12:36.812Z,0
2016-04-12T00:13:36.862Z,0
2016-04-12T00:14:36.911Z,0
2016-04-12T00:15:36.977Z,0
2016-04-12T00:16:37.104Z,0
2016-04-12T00:17:37.091Z,0
2016-04-12T00:18:37.125Z,0
2016-04-12T00:19:37.190Z,0
2016-04-12T00:20:37.224Z,0
2016-04-12T00:21:37.288Z,0
2016-04-12T00:22:37.339Z,0
2016-04-12T00:23:37.388Z,0
2016-04-12T00:24:37.422Z,0
2016-04-12T00:25:37.471Z,0
2016-04-12T00:26:37.538Z,0
2016-04-12T00:27:37.586Z,0
2016-04-12T00:28:37.637Z,0
2016-04-12T00:29:37.702Z,0
2016-04-12T00:30:37.780Z,0
2016-04-12T00:31:37.541Z,0
2016-04-12T00:32:37.892Z,0
2016-04-12T00:33:37.895Z,0
2016-04-12T00:34:37.944Z,0
2016-04-12T00:35:38.025Z,0
2016-04-12T00:36:38.043Z,0
2016-04-12T00:37:38.109Z,0
2016-04-12T00:38:38.159Z,0
2016-04-12T00:39:38.223Z,0
2016-04-12T00:40:38.273Z,0
2016-04-12T00:41:38.322Z,0
2016-04-12T00:42:38.357Z,0
2016-04-12T00:43:38.406Z,0
2016-04-12T00:44:38.471Z,0
2016-04-12T00:45:38.521Z,0
2016-04-12T00:46:38.711Z,0
2016-04-12T00:47:38.636Z,0
2016-04-12T00:48:38.685Z,0
2016-04-12T00:49:38.720Z,0
2016-04-12T00:50:38.784Z,0
2016-04-12T00:51:38.819Z,0
2016-04-12T00:52:38.883Z,0
2016-04-12T00:53:38.933Z,0
2016-04-12T00:54:38.983Z,0
2016-04-12T00:55:39.048Z,0
2016-04-12T00:56:39.097Z,0
2016-04-12T00:57:39.131Z,0
2016-04-12T00:58:39.197Z,0
2016-04-12T00:59:39.246Z,0
2016-04-12T01:00:39.295Z,0
2016-04-12T01:01:39.346Z,0
2016-04-12T01:02:39.395Z,0
2016-04-12T01:03:39.460Z,0
2016-04-12T01:04:39.493Z,0
2016-04-12T01:05:39.543Z,0
2016-04-12T01:06:39.609Z,0
2016-04-12T01:07:39.659Z,0
2016-04-12T01:08:39.707Z,0
2016-04-12T01:09:39.757Z,0
2016-04-12T01:10:39.807Z,0
2016-04-12T01:11:39.857Z,0
2016-04-12T01:12:39.172Z,0
2016-04-12T01:13:39.970Z,0
2016-04-12T01:14:40.005Z,0
2016-04-12T01:15:40.070Z,0
2016-04-12T01:16:40.120Z,0
2016-04-12T01:17:40.169Z,0
2016-04-12T01:18:40.281Z,0
2016-04-12T01:19:40.284Z,0
2016-04-12T01:20:40.318Z,0
2016-04-12T01:21:40.383Z,0
2016-04-12T01:22:40.433Z,0
2016-04-12T01:23:40.483Z,0
2016-04-12T01:24:40.532Z,0
2016-04-12T01:25:40.597Z,0
2016-04-12T01:26:40.647Z,0
2016-04-12T01:27:40.696Z,0
2016-04-12T01:28:40.746Z,0
2016-04-12T01:29:40.780Z,0
2016-04-12T01:30:40.845Z,0
2016-04-12T01:31:40.894Z,0
2016-04-12T01:32:40.944Z,0
2016-04-12T01:33:40.993Z,0
2016-04-12T01:34:41.059Z,0
2016-04-12T01:35:41.124Z,0
2016-04-12T01:36:41.157Z,0
2016-04-12T01:37:41.207Z,0
2016-04-12T01:38:41.257Z,0
2016-04-12T01:39:41.306Z,0
2016-04-12T01:40:41.372Z,0
2016-04-12T01:41:41.421Z,0
2016-04-12T01:42:41.470Z,0
2016-04-12T01:43:41.506Z,0
2016-04-12T01:44:41.570Z,0
2016-04-12T01:45:41.636Z,0
2016-04-12T01:46:41.669Z,0
2016-04-12T01:47:41.734Z,0
2016-04-12T01:48:41.612Z,0
2016-04-12T01:49:41.817Z,0
2016-04-12T01:50:41.711Z,0
2016-04-12T01:51:41.933Z,0
2016-04-12T01:52:42.013Z,0
2016-04-12T01:53:42.047Z,0
2016-04-12T01:54:42.081Z,0
2016-04-12T01:55:42.163Z,0
2016-04-12T01:56:42.197Z,0
2016-04-12T01:57:42.230Z,0
2016-04-12T01:58:42.279Z,0
2016-04-12T01:59:42.361Z,0
2016-04-12T02:00:42.394Z,0
2016-04-12T02:01:42.444Z,0
2016-04-12T02:02:42.494Z,0
2016-04-12T02:03:42.559Z,0
2016-04-12T02:04:42.593Z,0
2016-04-12T02:05:42.657Z,0
2016-04-12T02:06:42.707Z,0
2016-04-12T02:07:42.757Z,0
2016-04-12T02:08:42.650Z,0
2016-04-12T02:09:42.871Z,0
2016-04-12T02:10:42.905Z,0
2016-04-12T02:11:42.955Z,0
2016-04-12T02:12:43.004Z,0
2016-04-12T02:13:43.070Z,0
2016-04-12T02:14:43.119Z,0
2016-04-12T02:15:43.153Z,0
2016-04-12T02:16:43.219Z,0
2016-04-12T02:17:43.284Z,0
2016-04-12T02:18:43.318Z,0
2016-04-12T02:19:43.383Z,0
2016-04-12T02:20:43.417Z,0
2016-04-12T02:21:43.483Z,0
2016-04-12T02:22:43.531Z,0
2016-04-12T02:23:43.581Z,0
2016-04-12T02:24:43.631Z,0
2016-04-12T02:25:43.696Z,0
2016-04-12T02:26:43.746Z,0
2016-04-12T02:27:43.794Z,0
2016-04-12T02:28:43.844Z,0
2016-04-12T02:29:43.894Z,0
2016-04-12T02:30:43.943Z,0
2016-04-12T02:31:43.993Z,0
2016-04-12T02:32:44.058Z,0
2016-04-12T02:33:44.108Z,0
2016-04-12T02:34:44.158Z,0
2016-04-12T02:35:44.208Z,0
2016-04-12T02:36:44.257Z,0
2016-04-12T02:37:44.291Z,0
2016-04-12T02:38:44.356Z,0
2016-04-12T02:39:44.421Z,0
2016-04-12T02:40:44.471Z,0
2016-04-12T02:41:44.504Z,0
2016-04-12T02:42:44.585Z,0
2016-04-12T02:43:44.604Z,0
2016-04-12T02:44:44.670Z,0
2016-04-12T02:45:44.718Z,0
2016-04-12T02:46:44.800Z,0
2016-04-12T02:47:44.848Z,0
2016-04-12T02:48:44.898Z,0
2016-04-12T02:49:44.948Z,0
2016-04-12T02:50:45.028Z,0
2016-04-12T02:51:45.063Z,0
2016-04-12T02:52:45.097Z,0
2016-04-12T02:53:45.177Z,0
2016-04-12T02:54:45.211Z,0
2016-04-12T02:55:45.261Z,0
2016-04-12T02:56:45.326Z,0
2016-04-12T02:57:45.375Z,0
2016-04-12T02:58:45.409Z,0
2016-04-12T02:59:45.459Z,0
2016-04-12T03:00:45.540Z,0
2016-04-12T03:01:45.574Z,0
2016-04-12T03:02:45.623Z,0
2016-04-12T03:03:45.688Z,0
2016-04-12T03:04:45.723Z,0
2016-04-12T03:05:45.756Z,0
2016-04-12T03:06:45.837Z,0
2016-04-12T03:07:45.871Z,0
2016-04-12T03:08:45.920Z,0
2016-04-12T03:09:46.001Z,0
2016-04-12T03:10:46.020Z,0
2016-04-12T03:11:46.101Z,0
2016-04-12T03:12:46.135Z,0
2016-04-12T03:13:46.184Z,0
2016-04-12T03:14:46.265Z,0
2016-04-12T03:15:46.298Z,0
2016-04-12T03:16:46.333Z,0
2016-04-12T03:17:46.414Z,0
2016-04-12T03:18:46.463Z,0
2016-04-12T03:19:46.498Z,0
2016-04-12T03:20:46.563Z,0
2016-04-12T03:21:46.612Z,0
2016-04-12T03:22:46.647Z,0
2016-04-12T03:23:46.711Z,0
2016-04-12T03:24:46.745Z,0
2016-04-12T03:25:46.811Z,0
2016-04-12T03:26:46.875Z,0
2016-04-12T03:27:46.910Z,0
2016-04-12T03:28:46.990Z,0
2016-04-12T03:29:47.024Z,0
2016-04-12T03:30:47.058Z,0
2016-04-12T03:31:47.123Z,0
2016-04-12T03:32:47.204Z,0
2016-04-12T03:33:47.222Z,0
2016-04-12T03:34:47.257Z,0
2016-04-12T03:35:47.337Z,0
2016-04-12T03:36:47.387Z,0
2016-04-12T03:37:47.437Z,0
2016-04-12T03:38:47.471Z,0
2016-04-12T03:39:47.552Z,0
2016-04-12T03:40:47.601Z,0
2016-04-12T03:41:47.651Z,0
2016-04-12T03:42:47.684Z,0
2016-04-12T03:43:47.781Z,0
2016-04-12T03:44:47.799Z,0
2016-04-12T03:45:47.895Z,0
2016-04-12T03:46:47.929Z,0
2016-04-12T03:47:47.963Z,0
2016-04-12T03:48:48.012Z,0
2016-04-12T03:49:48.062Z,0
2016-04-12T03:50:48.111Z,0
2016-04-12T03:51:48.177Z,0
2016-04-12T03:52:48.211Z,0
2016-04-12T03:53:48.261Z,0
2016-04-12T03:54:48.326Z,0
2016-04-12T03:55:48.375Z,0
2016-04-12T03:56:48.409Z,0
2016-04-12T03:57:48.333Z,0
2016-04-12T03:58:48.369Z,0
2016-04-12T03:59:48.558Z,0
2016-04-12T04:00:48.624Z,0
2016-04-12T04:01:48.672Z,0
2016-04-12T04:02:48.754Z,0
2016-04-12T04:03:48.788Z,0
2016-04-12T04:04:48.822Z,0
2016-04-12T04:05:48.902Z,0
2016-04-12T04:06:48.779Z,0
2016-04-12T04:07:48.985Z,0
2016-04-12T04:08:49.052Z,0
2016-04-12T04:09:49.132Z,0
2016-04-12T04:10:48.385Z,0
2016-04-12T04:11:49.215Z,0
2016-04-12T04:12:49.265Z,0
2016-04-12T04:13:49.284Z,0
2016-04-12T04:14:49.379Z,0
2016-04-12T04:15:49.398Z,0
2016-04-12T04:16:49.478Z,0
2016-04-12T04:17:49.513Z,0
2016-04-12T04:18:49.531Z,0
2016-04-12T04:19:49.628Z,0
2016-04-12T04:20:49.677Z,0
2016-04-12T04:21:49.711Z,0
2016-04-12T04:22:49.761Z,0
2016-04-12T04:23:49.825Z,0
2016-04-12T04:24:49.859Z,0
2016-04-12T04:25:49.909Z,0
2016-04-12T04:26:49.975Z,0
2016-04-12T04:27:50.024Z,0
2016-04-12T04:28:50.074Z,0
2016-04-12T04:29:50.123Z,0
2016-04-12T04:30:50.157Z,0
2016-04-12T04:31:50.238Z,0
2016-04-12T04:32:50.288Z,0
2016-04-12T04:33:50.321Z,0
2016-04-12T04:34:49.636Z,0
2016-04-12T04:35:50.435Z,0
2016-04-12T04:36:50.486Z,0
2016-04-12T04:37:50.551Z,0
2016-04-12T04:38:50.601Z,0
2016-04-12T04:39:50.635Z,0
2016-04-12T04:40:50.699Z,0
2016-04-12T04:41:50.749Z,0
2016-04-12T04:42:50.783Z,0
2016-04-12T04:43:50.848Z,0
2016-04-12T04:44:50.913Z,0
2016-04-12T04:45:50.948Z,0
2016-04-12T04:46:50.856Z,0
2016-04-12T04:47:51.062Z,0
2016-04-12T04:48:51.096Z,0
2016-04-12T04:49:51.131Z,0
2016-04-12T04:50:51.211Z,0
2016-04-12T04:51:51.261Z,0
2016-04-12T04:52:51.309Z,0
2016-04-12T04:53:51.360Z,0
2016-04-12T04:54:51.409Z,0
2016-04-12T04:55:51.475Z,0
2016-04-12T04:56:51.524Z,0
2016-04-12T04:57:51.557Z,0
2016-04-12T04:58:51.623Z,0
2016-04-12T04:59:51.688Z,0
2016-04-12T05:00:51.706Z,0
2016-04-12T05:01:51.788Z,0
2016-04-12T05:02:51.821Z,0
2016-04-12T05:03:51.105Z,0
2016-04-12T05:04:51.936Z,0
2016-04-12T05:05:51.986Z,0
2016-04-12T05:06:52.051Z,0
2016-04-12T05:07:52.085Z,0
2016-04-12T05:08:52.119Z,0
2016-04-12T05:09:52.200Z,0
2016-04-12T05:10:52.243Z,0
2016-04-12T05:11:52.276Z,0
2016-04-12T05:12:52.343Z,0
2016-04-12T05:13:52.407Z,0
2016-04-12T05:14:52.441Z,0
2016-04-12T05:15:52.492Z,0
2016-04-12T05:16:52.572Z,0
2016-04-12T05:17:52.434Z,0
2016-04-12T05:18:52.670Z,0
2016-04-12T05:19:52.689Z,0
2016-04-12T05:20:52.770Z,0
2016-04-12T05:21:52.835Z,0
2016-04-12T05:22:52.853Z,0
2016-04-12T05:23:52.919Z,0
2016-04-12T05:24:52.984Z,0
2016-04-12T05:25:53.003Z,0
2016-04-12T05:26:53.067Z,0
2016-04-12T05:27:53.149Z,0
2016-04-12T05:28:53.166Z,0
2016-04-12T05:29:53.216Z,0
2016-04-12T05:30:53.297Z,0
2016-04-12T05:31:53.330Z,0
2016-04-12T05:32:53.490Z,0
2016-04-12T05:33:53.429Z,0
2016-04-12T05:34:53.464Z,0
2016-04-12T05:35:53.545Z,0
2016-04-12T05:36:53.578Z,0
2016-04-12T05:37:53.629Z,0
2016-04-12T05:38:53.709Z,0
2016-04-12T05:39:53.759Z,0
2016-04-12T05:40:53.793Z,0
2016-04-12T05:41:53.857Z,0
2016-04-12T05:42:53.142Z,0
2016-04-12T05:43:53.941Z,0
2016-04-12T05:44:53.991Z,0
2016-04-12T05:45:54.056Z,0
2016-04-12T05:46:54.106Z,0
2016-04-12T05:47:54.186Z,0
2016-04-12T05:48:54.205Z,0
2016-04-12T05:49:54.286Z,0
2016-04-12T05:50:54.303Z,0
2016-04-12T05:51:54.338Z,0
2016-04-12T05:52:54.434Z,0
2016-04-12T05:53:54.484Z,0
2016-04-12T05:54:54.502Z,0
2016-04-12T05:55:54.567Z,0
2016-04-12T05:56:54.602Z,0
2016-04-12T05:57:54.682Z,0
2016-04-12T05:58:54.716Z,0
2016-04-12T05:59:54.766Z,0
2016-04-12T06:00:54.830Z,0
2016-04-12T06:01:54.896Z,0
2016-04-12T06:02:54.821Z,0
2016-04-12T06:03:54.980Z,0
2016-04-12T06:04:55.044Z,0
2016-04-12T06:05:55.078Z,0
2016-04-12T06:06:55.144Z,0
2016-04-12T06:07:55.209Z,0
2016-04-12T06:08:55.243Z,0
2016-04-12T06:09:55.308Z,0
2016-04-12T06:10:55.342Z,0
2016-04-12T06:11:55.407Z,0
2016-04-12T06:12:55.487Z,0
2016-04-12T06:13:55.490Z,0
2016-04-12T06:14:55.556Z,4
2016-04-12T06:15:55.621Z,4
2016-04-12T06:16:55.655Z,4
2016-04-12T06:17:55.798Z,4
2016-04-12T06:18:55.770Z,4
2016-04-12T06:19:55.803Z,4
2016-04-12T06:20:55.853Z,4
2016-04-12T06:21:55.934Z,4
2016-04-12T06:22:55.968Z,4
2016-04-12T06:23:56.002Z,4
2016-04-12T06:24:56.098Z,4
2016-04-12T06:25:56.133Z,4
2016-04-12T06:26:56.166Z,4
2016-04-12T06:27:56.215Z,4
2016-04-12T06:28:56.281Z,4
2016-04-12T06:29:56.315Z,0
2016-04-12T06:30:56.380Z,0
2016-04-12T06:31:56.446Z,0
2016-04-12T06:32:56.557Z,0
2016-04-12T06:33:56.513Z,0
2016-04-12T06:34:56.610Z,0
2016-04-12T06:35:56.644Z,0
2016-04-12T06:36:56.693Z,0
2016-04-12T06:37:56.727Z,4
2016-04-12T06:38:56.777Z,4
2016-04-12T06:39:56.858Z,4
2016-04-12T06:40:56.876Z,0
2016-04-12T06:41:56.940Z,4
2016-04-12T06:42:57.006Z,4
2016-04-12T06:43:57.040Z,4
2016-04-12T06:44:57.074Z,8
2016-04-12T06:45:57.170Z,8
2016-04-12T06:46:57.236Z,8
2016-04-12T06:47:57.254Z,8
2016-04-12T06:48:57.319Z,8
2016-04-12T06:49:57.337Z,12
2016-04-12T06:50:57.418Z,16
2016-04-12T06:51:57.468Z,12
2016-04-12T06:52:57.502Z,12
2016-04-12T06:53:57.567Z,12
2016-04-12T06:54:57.617Z,8
2016-04-12T06:55:57.651Z,8
2016-04-12T06:56:57.731Z,4
2016-04-12T06:57:57.781Z,4
2016-04-12T06:58:57.814Z,8
2016-04-12T06:59:57.880Z,8
2016-04-12T07:00:57.913Z,4
2016-04-12T07:01:57.979Z,4
2016-04-12T07:02:58.200Z,4
2016-04-12T07:03:57.766Z,8
2016-04-12T07:04:58.127Z,4
2016-04-12T07:05:58.177Z,8
2016-04-12T07:06:58.211Z,8
2016-04-12T07:07:57.526Z,8
2016-04-12T07:08:58.341Z,8
2016-04-12T07:09:58.376Z,8
2016-04-12T07:10:58.425Z,12
2016-04-12T07:11:58.506Z,12
2016-04-12T07:12:58.540Z,12
2016-04-12T07:13:58.605Z,16
2016-04-12T07:14:58.623Z,16
2016-04-12T07:15:58.720Z,24
2016-04-12T07:16:58.754Z,16
2016-04-12T07:17:58.678Z,32
2016-04-12T07:18:58.837Z,24
2016-04-12T07:19:58.934Z,24
2016-04-12T07:20:58.937Z,24
2016-04-12T07:21:58.986Z,24
2016-04-12T07:22:59.051Z,24
2016-04-12T07:23:59.100Z,24
2016-04-12T07:24:59.150Z,20
2016-04-12T07:25:59.216Z,32
2016-04-12T07:26:59.250Z,32
2016-04-12T07:27:59.314Z,28
2016-04-12T07:28:59.364Z,16
2016-04-12T07:29:59.414Z,16
2016-04-12T07:30:59.479Z,16
2016-04-12T07:31:59.513Z,20
2016-04-12T07:32:59.625Z,16
2016-04-12T07:33:59.628Z,12
2016-04-12T07:34:59.677Z,16
2016-04-12T07:35:59.710Z,20
2016-04-12T07:36:59.777Z,36
2016-04-12T07:37:59.841Z,36
2016-04-12T07:38:59.876Z,28
2016-04-12T07:39:59.925Z,32
2016-04-12T07:40:59.959Z,36
2016-04-12T07:42:00.043Z,36
2016-04-12T07:43:00.141Z,36
2016-04-12T07:44:00.239Z,36
2016-04-12T07:45:00.351Z,32
2016-04-12T07:46:00.450Z,32
2016-04-12T07:47:00.514Z,28
2016-04-12T07:48:00.596Z,32
2016-04-12T07:49:00.662Z,32
2016-04-12T07:50:00.714Z,32
2016-04-12T07:51:00.781Z,36
2016-04-12T07:52:00.878Z,32
2016-04-12T07:53:00.950Z,92
2016-04-12T07:54:01.020Z,76
2016-04-12T07:55:01.045Z,96
2016-04-12T07:56:01.101Z,92
2016-04-12T07:57:01.172Z,92
2016-04-12T07:58:01.208Z,92
2016-04-12T07:59:01.260Z,92
2016-04-12T08:00:01.343Z,92
2016-04-12T08:01:01.379Z,84
2016-04-12T08:02:01.399Z,88
2016-04-12T08:03:01.481Z,88
2016-04-12T08:04:01.532Z,92
2016-04-12T08:05:01.567Z,92
2016-04-12T08:06:01.648Z,68
2016-04-12T08:07:01.699Z,44
2016-04-12T08:08:01.722Z,88
2016-04-12T08:09:01.788Z,88
2016-04-12T08:10:01.836Z,88
2016-04-12T08:11:01.872Z,68
2016-04-12T08:12:01.953Z,88
2016-04-12T08:13:02.002Z,88
2016-04-12T08:14:02.041Z,92
2016-04-12T08:15:02.075Z,88
2016-04-12T08:16:02.156Z,84
2016-04-12T08:17:02.206Z,92
2016-04-12T08:18:02.255Z,92
2016-04-12T08:19:02.288Z,68
2016-04-12T08:20:02.355Z,76
2016-04-12T08:21:02.419Z,60
2016-04-12T08:22:02.438Z,32
2016-04-12T08:23:02.487Z,36
2016-04-12T08:24:02.553Z,84
2016-04-12T08:25:02.586Z,76
2016-04-12T08:26:02.635Z,80
2016-04-12T08:27:02.716Z,84
2016-04-12T08:28:02.751Z,76
2016-04-12T08:29:02.801Z,68
2016-04-12T08:30:02.866Z,68
2016-04-12T08:31:02.899Z,84
2016-04-12T08:32:02.980Z,84
2016-04-12T08:33:02.998Z,64
2016-04-12T08:34:03.048Z,88
2016-04-12T08:35:03.129Z,88
2016-04-12T08:36:03.163Z,84
2016-04-12T08:37:03.197Z,84
2016-04-12T08:38:03.293Z,80
2016-04-12T08:39:03.328Z,68
2016-04-12T08:40:03.362Z,80
2016-04-12T08:41:03.426Z,76
2016-04-12T08:42:03.492Z,88
2016-04-12T08:43:03.526Z,88
2016-04-12T08:44:03.591Z,88
2016-04-12T08:45:03.625Z,72
2016-04-12T08:46:03.690Z,72
2016-04-12T08:47:03.739Z,72
2016-04-12T08:48:03.773Z,72
2016-04-12T08:49:03.855Z,72
2016-04-12T08:50:03.903Z,72
2016-04-12T08:51:03.922Z,72
2016-04-12T08:52:03.988Z,72
2016-04-12T08:53:04.068Z,60
2016-04-12T08:54:04.102Z,68
2016-04-12T08:55:04.167Z,64
2016-04-12T08:56:04.202Z,64
2016-04-12T08:57:04.266Z,64
2016-04-12T08:58:04.160Z,64
2016-04-12T08:59:04.335Z,68
2016-04-12T09:00:04.415Z,64
2016-04-12T09:01:04.465Z,60
2016-04-12T09:02:04.483Z,56
2016-04-12T09:03:04.563Z,56
2016-04-12T09:04:04.613Z,52
2016-04-12T09:05:04.647Z,56
2016-04-12T09:06:04.681Z,60
2016-04-12T09:07:04.809Z,64
2016-04-12T09:08:04.796Z,64
2016-04-12T09:09:04.881Z,64
2016-04-12T09:10:04.884Z,56
2016-04-12T09:11:04.950Z,56
2016-04-12T09:12:05.015Z,60
2016-04-12T09:13:05.033Z,60
2016-04-12T09:14:05.083Z,64
2016-04-12T09:15:05.178Z,60
2016-04-12T09:16:05.228Z,60
2016-04-12T09:17:05.247Z,60
2016-04-12T09:18:05.359Z,60
2016-04-12T09:19:05.377Z,60
2016-04-12T09:20:05.427Z,60
2016-04-12T09:21:05.460Z,56
2016-04-12T09:22:05.526Z,56
2016-04-12T09:23:05.591Z,52
2016-04-12T09:24:05.625Z,48
2016-04-12T09:25:05.674Z,56
2016-04-12T09:26:05.755Z,56
2016-04-12T09:27:05.805Z,52
2016-04-12T09:28:05.823Z,52
2016-04-12T09:29:05.888Z,52
2016-04-12T09:30:05.954Z,56
2016-04-12T09:31:05.957Z,44
2016-04-12T09:32:06.037Z,48
2016-04-12T09:33:06.102Z,52
2016-04-12T09:34:06.168Z,48
2016-04-12T09:35:06.218Z,44
2016-04-12T09:36:06.220Z,48
2016-04-12T09:37:06.301Z,48
2016-04-12T09:38:06.350Z,44
2016-04-12T09:39:06.384Z,44
2016-04-12T09:40:06.434Z,52
2016-04-12T09:41:06.499Z,48
2016-04-12T09:42:06.517Z,48
2016-04-12T09:43:06.583Z,48
2016-04-12T09:44:06.647Z,48
2016-04-12T09:45:06.697Z,44
2016-04-12T09:46:06.731Z,44
2016-04-12T09:47:06.828Z,44
2016-04-12T09:48:06.846Z,48
2016-04-12T09:49:06.927Z,48
2016-04-12T09:50:06.961Z,48
2016-04-12T09:51:06.994Z,48
2016-04-12T09:52:07.106Z,48
2016-04-12T09:53:07.124Z,48
2016-04-12T09:54:07.175Z,48
2016-04-12T09:55:07.208Z,48
2016-04-12T09:56:07.289Z,44
2016-04-12T09:57:07.338Z,44
2016-04-12T09:58:07.373Z,44
2016-04-12T09:59:06.672Z,44
2016-04-12T10:00:07.457Z,48
2016-04-12T10:01:07.522Z,48
2016-04-12T10:02:07.587Z,0
2016-04-12T10:03:07.604Z,0
2016-04-12T10:04:07.670Z,4
2016-04-12T10:05:07.735Z,4
2016-04-12T10:06:07.769Z,0
2016-04-12T10:07:07.835Z,4
2016-04-12T10:08:07.900Z,4
2016-04-12T10:09:07.918Z,4
2016-04-12T10:10:07.983Z,4
2016-04-12T10:11:08.048Z,0
2016-04-12T10:12:08.114Z,4
2016-04-12T10:13:08.163Z,4
2016-04-12T10:14:08.181Z,4
2016-04-12T10:15:08.308Z,4
2016-04-12T10:16:08.312Z,4
2016-04-12T10:17:08.361Z,4
2016-04-12T10:18:08.411Z,4
2016-04-12T10:19:08.460Z,4
2016-04-12T10:20:08.510Z,0
2016-04-12T10:21:08.544Z,4
2016-04-12T10:22:08.625Z,4
2016-04-12T10:23:08.659Z,4
2016-04-12T10:24:08.693Z,4
2016-04-12T10:25:08.773Z,0
2016-04-12T10:26:08.791Z,0
2016-04-12T10:27:08.919Z,0
2016-04-12T10:28:08.922Z,0
2016-04-12T10:29:08.956Z,0
2016-04-12T10:30:09.037Z,0
2016-04-12T10:31:09.087Z,0
2016-04-12T10:32:09.120Z,0
2016-04-12T10:33:09.201Z,0
2016-04-12T10:34:09.266Z,0
2016-04-12T10:35:09.268Z,0
2016-04-12T10:36:10.022Z,0
2016-04-12T10:37:09.384Z,0
2016-04-12T10:38:09.418Z,0
2016-04-12T10:39:09.483Z,0
2016-04-12T10:40:09.548Z,0
2016-04-12T10:41:09.581Z,4
2016-04-12T10:42:09.631Z,0
2016-04-12T10:43:09.713Z,0
2016-04-12T10:44:09.747Z,0
2016-04-12T10:45:09.781Z,0
2016-04-12T10:46:09.861Z,0
2016-04-12T10:47:11.005Z,4
2016-04-12T10:48:09.961Z,0
2016-04-12T10:49:10.089Z,0
2016-04-12T10:50:10.075Z,0
2016-04-12T10:51:10.093Z,0
2016-04-12T10:52:10.159Z,0
2016-04-12T10:53:10.208Z,0
2016-04-12T10:54:10.274Z,0
2016-04-12T10:55:10.323Z,0
2016-04-12T10:56:10.357Z,4
2016-04-12T10:57:10.422Z,0
2016-04-12T10:58:10.487Z,0
2016-04-12T10:59:10.505Z,0
2016-04-12T11:00:10.571Z,0
2016-04-12T11:01:10.651Z,4
2016-04-12T11:02:10.670Z,0
2016-04-12T11:03:10.719Z,0
2016-04-12T11:04:10.784Z,0
2016-04-12T11:05:10.834Z,4
2016-04-12T11:06:10.899Z,4
2016-04-12T11:07:10.917Z,4
2016-04-12T11:08:10.998Z,4
2016-04-12T11:09:11.049Z,4
2016-04-12T11:10:11.082Z,4
2016-04-12T11:11:11.147Z,4
2016-04-12T11:12:11.212Z,0
2016-04-12T11:13:11.245Z,4
2016-04-12T11:14:11.281Z,0
2016-04-12T11:15:11.361Z,4
2016-04-12T11:16:11.411Z,4
2016-04-12T11:17:11.460Z,0
2016-04-12T11:18:11.494Z,0
2016-04-12T11:19:11.544Z,0
2016-04-12T11:20:11.624Z,4
2016-04-12T11:21:11.674Z,4
2016-04-12T11:22:11.708Z,4
2016-04-12T11:23:11.773Z,4
2016-04-12T11:24:11.823Z,4
2016-04-12T11:25:11.857Z,4
2016-04-12T11:26:11.938Z,4
2016-04-12T11:27:11.971Z,0
2016-04-12T11:28:12.021Z,4
2016-04-12T11:29:12.086Z,0
2016-04-12T11:30:12.152Z,0
2016-04-12T11:31:12.170Z,0
2016-04-12T11:32:12.234Z,0
2016-04-12T11:33:12.300Z,4
2016-04-12T11:34:12.241Z,4
2016-04-12T11:35:12.399Z,0
2016-04-12T11:36:12.449Z,0
2016-04-12T11:37:12.514Z,12
2016-04-12T11:38:12.532Z,8
2016-04-12T11:39:12.612Z,12
2016-04-12T11:40:12.662Z,12
2016-04-12T11:41:12.681Z,16
2016-04-12T11:42:12.761Z,16
2016-04-12T11:43:12.795Z,12
2016-04-12T11:44:12.862Z,16
2016-04-12T11:45:12.911Z,12
2016-04-12T11:46:12.944Z,12
2016-04-12T11:47:13.025Z,12
2016-04-12T11:48:13.059Z,12
2016-04-12T11:49:12.984Z,12
2016-04-12T11:50:13.189Z,20
2016-04-12T11:51:14.223Z,20
2016-04-12T11:52:13.257Z,28
2016-04-12T11:53:13.322Z,24
2016-04-12T11:54:13.403Z,24
2016-04-12T11:55:13.422Z,24
2016-04-12T11:56:13.471Z,24
2016-04-12T11:57:13.521Z,24
2016-04-12T11:58:13.602Z,20
2016-04-12T11:59:13.636Z,20
2016-04-12T12:00:13.686Z,20
2016-04-12T12:01:13.579Z,24
2016-04-12T12:02:13.816Z,24
2016-04-12T12:03:13.834Z,24
2016-04-12T12:04:14.196Z,24
2016-04-12T12:05:13.949Z,20
2016-04-12T12:06:13.982Z,24
2016-04-12T12:07:14.032Z,24
2016-04-12T12:08:13.941Z,20
2016-04-12T12:09:14.162Z,12
2016-04-12T12:10:14.212Z,12
2016-04-12T12:11:14.276Z,12
2016-04-12T12:12:14.311Z,12
2016-04-12T12:13:14.377Z,12
2016-04-12T12:14:14.395Z,12
2016-04-12T12:15:14.522Z,16
2016-04-12T12:16:14.525Z,12
2016-04-12T12:17:14.559Z,16
2016-04-12T12:18:14.625Z,12
2016-04-12T12:19:14.768Z,12
2016-04-12T12:20:14.723Z,12
2016-04-12T12:21:14.773Z,28
2016-04-12T12:22:14.807Z,32
2016-04-12T12:23:14.872Z,28
2016-04-12T12:24:14.937Z,32
2016-04-12T12:25:14.987Z,28
2016-04-12T12:26:15.021Z,28
2016-04-12T12:27:15.102Z,32
2016-04-12T12:28:15.136Z,28
2016-04-12T12:29:15.169Z,32
2016-04-12T12:30:15.250Z,28
2016-04-12T12:31:15.300Z,32
2016-04-12T12:32:15.333Z,28
2016-04-12T12:33:15.399Z,24
2016-04-12T12:34:15.652Z,24
2016-04-12T12:35:15.513Z,24
2016-04-12T12:36:15.548Z,24
2016-04-12T12:37:15.582Z,24
2016-04-12T12:38:15.663Z,28
2016-04-12T12:39:15.712Z,24
2016-04-12T12:40:15.746Z,24
2016-04-12T12:41:15.811Z,28
2016-04-12T12:42:15.876Z,28
2016-04-12T12:43:15.895Z,28
2016-04-12T12:44:15.960Z,28
2016-04-12T12:45:16.026Z,16
2016-04-12T12:46:16.043Z,20
2016-04-12T12:47:16.108Z,16
2016-04-12T12:48:16.158Z,20
2016-04-12T12:49:16.067Z,20
2016-04-12T12:50:16.272Z,20
2016-04-12T12:51:16.307Z,20
2016-04-12T12:52:16.387Z,20
2016-04-12T12:53:16.436Z,16
2016-04-12T12:54:16.455Z,16
2016-04-12T12:55:16.520Z,12
2016-04-12T12:56:16.586Z,16
2016-04-12T12:57:16.635Z,20
2016-04-12T12:58:16.669Z,16
2016-04-12T12:59:16.750Z,16
2016-04-12T13:00:16.783Z,16
2016-04-12T13:01:16.849Z,20
2016-04-12T13:02:16.868Z,12
2016-04-12T13:03:16.932Z,16
2016-04-12T13:04:16.919Z,16
2016-04-12T13:05:17.047Z,16
2016-04-12T13:06:17.081Z,20
2016-04-12T13:07:17.162Z,16
2016-04-12T13:08:17.196Z,20
2016-04-12T13:09:17.232Z,20
2016-04-12T13:10:17.299Z,16
2016-04-12T13:11:17.363Z,20
2016-04-12T13:12:17.382Z,12
2016-04-12T13:13:17.463Z,12
2016-04-12T13:14:17.512Z,12
2016-04-12T13:15:17.562Z,12
2016-04-12T13:16:17.611Z,16
2016-04-12T13:17:17.708Z,12
2016-04-12T13:18:17.695Z,12
2016-04-12T13:19:17.651Z,16
2016-04-12T13:20:17.841Z,16
2016-04-12T13:21:17.860Z,16
2016-04-12T13:22:17.909Z,16
2016-04-12T13:23:18.005Z,12
2016-04-12T13:24:18.040Z,16
2016-04-12T13:25:18.073Z,16
2016-04-12T13:26:18.123Z,16
2016-04-12T13:27:18.203Z,16
2016-04-12T13:28:18.237Z,20
2016-04-12T13:29:18.302Z,12
2016-04-12T13:30:18.321Z,12
2016-04-12T13:31:18.417Z,12
2016-04-12T13:32:18.436Z,12
2016-04-12T13:33:18.485Z,12
2016-04-12T13:34:18.691Z,12
2016-04-12T13:35:18.615Z,12
2016-04-12T13:36:18.619Z,12
2016-04-12T13:37:18.699Z,12
2016-04-12T13:38:18.733Z,12
2016-04-12T13:39:18.813Z,12
2016-04-12T13:40:18.847Z,12
2016-04-12T13:41:18.897Z,16
2016-04-12T13:42:18.977Z,20
2016-04-12T13:43:19.042Z,20
2016-04-12T13:44:19.409Z,20
2016-04-12T13:45:19.125Z,24
2016-04-12T13:46:19.510Z,24
2016-04-12T13:47:19.391Z,24
2016-04-12T13:48:19.487Z,24
2016-04-12T13:49:19.209Z,20
2016-04-12T13:50:19.352Z,12
2016-04-12T13:51:19.418Z,12
2016-04-12T13:52:19.452Z,12
2016-04-12T13:53:19.532Z,12
2016-04-12T13:54:19.582Z,12
2016-04-12T13:55:19.616Z,12
2016-04-12T13:56:19.681Z,12
2016-04-12T13:57:19.730Z,12
2016-04-12T13:58:19.764Z,12
2016-04-12T13:59:19.829Z,12
2016-04-12T14:00:19.895Z,12
2016-04-12T14:01:20.195Z,12
2016-04-12T14:02:19.978Z,12
2016-04-12T14:03:20.043Z,12
2016-04-12T14:04:20.234Z,12
2016-04-12T14:05:20.159Z,12
2016-04-12T14:06:20.193Z,20
2016-04-12T14:07:20.241Z,20
2016-04-12T14:08:20.322Z,24
2016-04-12T14:09:20.341Z,12
2016-04-12T14:10:20.390Z,12
2016-04-12T14:11:20.472Z,12
2016-04-12T14:12:20.521Z,12
2016-04-12T14:13:20.398Z,28
2016-04-12T14:14:20.620Z,24
2016-04-12T14:15:20.669Z,24
2016-04-12T14:16:20.719Z,12
2016-04-12T14:17:20.752Z,12
2016-04-12T14:18:20.802Z,12
2016-04-12T14:19:20.946Z,12
2016-04-12T14:20:20.932Z,12
2016-04-12T14:21:20.952Z,12
2016-04-12T14:22:21.032Z,12
2016-04-12T14:23:21.082Z,12
2016-04-12T14:24:21.116Z,24
2016-04-12T14:25:21.196Z,24
2016-04-12T14:26:21.246Z,28
2016-04-12T14:27:21.280Z,24
2016-04-12T14:28:21.329Z,24
2016-04-12T14:29:21.380Z,28
2016-04-12T14:30:21.444Z,28
2016-04-12T14:31:21.494Z,28
2016-04-12T14:32:21.544Z,12
2016-04-12T14:33:21.593Z,12
2016-04-12T14:34:21.674Z,12
2016-04-12T14:35:21.676Z,24